Latest Weather Observations for Blackall

IDQ60801

Issued at 9:35 pm EST Friday 31 October 2014 (issued every 30 minutes, with the page automatically refreshed every 10 minutes)

About weather observations | Map of weather stations | Latest weather observations for QLD | Other Formats
Station Details ID: 036034 Name: BLACKALL AIRPORT Lat: -24.43 Lon: 145.43 Height: 281.3 m
Data from the previous 72 hours. | See also: Recent months at Blackall
Date/Time
EST
Temp
°C
App
Temp
°C
Dew
Point
Rel
Hum
%
Delta-T
°C
Wind Press
QNH
hPa
Press
MSL
hPa
Rain
since 9 am
mm
Dir
 
Spd
km/h
Gust
km/h
Spd
kts
Gust
kts
31/09:30pm 31.2 27.8 10.5 28 12.0 NNE 19 28 10 15 1009.3 1007.8 0.0
31/09:00pm 31.6 27.9 10.3 27 12.4 NNE 20 24 11 13 1009.1 1007.6 0.0
31/08:30pm 32.1 28.4 9.6 25 12.9 NNE 19 24 10 13 1008.7 1007.2 0.0
31/08:00pm 32.8 29.1 9.6 24 13.4 NNE 19 28 10 15 1008.5 1007.0 0.0
31/07:30pm 32.6 29.3 8.1 22 13.8 NNE 15 19 8 10 1008.2 1006.7 0.0
31/07:00pm 34.2 30.0 7.3 19 15.1 N 19 26 10 14 1008.1 1006.6 0.0
31/06:30pm 35.2 29.8 4.7 15 16.5 N 22 32 12 17 1008.0 1006.5 0.0
31/06:00pm 36.4 30.8 5.6 15 17.0 N 24 33 13 18 1007.7 1006.2 0.0
31/05:30pm 36.8 30.5 5.9 15 17.1 N 28 39 15 21 1007.5 1006.0 0.0
31/05:00pm 37.2 31.6 5.3 14 17.6 N 24 35 13 19 1007.5 1006.0 0.0
31/04:30pm 37.5 31.0 8.3 17 16.8 NNW 32 50 17 27 1007.5 1006.0 0.0
31/04:21pm 37.1 30.6 8.0 17 16.7 N 32 50 17 27 1007.5 1006.0 0.0
31/04:00pm 37.2 32.2 8.1 17 16.7 N 24 39 13 21 1007.5 1006.0 0.0
31/03:30pm 37.7 31.1 7.6 16 17.2 N 32 46 17 25 1007.7 1006.2 0.0
31/03:03pm 38.0 31.4 7.8 16 17.3 N 32 52 17 28 1007.9 1006.4 0.0
31/03:00pm 38.0 31.4 7.8 16 17.4 N 32 46 17 25 1007.9 1006.4 0.0
31/02:31pm 37.7 31.4 7.6 16 17.2 NNW 30 48 16 26 1008.3 1006.8 0.0
31/02:30pm 38.0 31.8 7.8 16 17.3 NNW 30 46 16 25 1008.3 1006.8 0.0
31/02:00pm 38.1 31.5 7.9 16 17.4 N 32 52 17 28 1008.7 1007.2 0.0
31/01:34pm 37.7 31.3 8.5 17 16.9 N 32 56 17 30 1008.5 1007.0 0.0
31/01:30pm 37.5 31.3 9.2 18 16.5 NNW 32 43 17 23 1009.1 1007.6 0.0
31/01:00pm 36.6 29.6 8.4 18 16.2 N 35 59 19 32 1009.6 1008.2 0.0
31/12:53pm 36.6 30.0 8.4 18 16.2 N 33 59 18 32 1009.6 1008.2 0.0
31/12:30pm 35.5 27.5 7.5 18 15.8 N 39 56 21 30 1010.3 1008.9 0.0
31/12:00pm 35.5 29.0 9.1 20 15.3 N 33 54 18 29 1011.0 1009.5 0.0
31/11:51am 35.4 29.1 9.0 20 15.2 N 32 54 17 29 1011.0 1009.5 0.0
31/11:30am 35.0 28.6 9.4 21 14.8 N 33 43 18 23 1011.4 1009.9 0.0
31/11:00am 33.7 27.4 9.7 23 13.9 N 33 46 18 25 1011.8 1010.3 0.0
31/10:30am 32.6 26.4 10.0 25 13.1 N 33 54 18 29 1012.1 1010.6 0.0
31/10:25am 32.7 26.7 10.7 26 12.9 N 33 54 18 29 1012.1 1010.6 0.0
31/10:00am 31.3 25.2 11.7 30 11.6 N 35 48 19 26 1012.6 1011.1 0.0
31/09:37am 30.3 24.5 10.8 30 11.3 NNE 32 52 17 28 1012.7 1011.2 0.0
31/09:30am 30.6 25.9 12.0 32 11.0 NNE 28 41 15 22 1012.9 1011.5 0.0
31/09:00am 29.3 23.9 12.3 35 10.1 NNE 32 44 17 24 1013.3 1011.9 -
31/08:30am 28.4 23.0 12.3 37 9.5 N 32 43 17 23 1013.2 1011.8 -
31/08:00am 27.2 22.9 13.2 42 8.3 NNE 28 39 15 21 1013.2 1011.8 -
31/07:30am 26.3 21.8 13.8 46 7.5 NNE 30 41 16 22 1013.1 1011.7 -
31/07:00am 25.7 22.6 14.5 50 6.8 NNE 24 39 13 21 1013.1 1011.7 -
31/06:30am 25.2 21.3 14.3 50 6.5 NE 28 41 15 22 1012.8 1011.4 -
31/06:00am 25.0 20.9 14.8 53 6.2 NE 30 43 16 23 1012.4 1010.9 -
31/05:30am 25.1 20.9 14.6 52 6.3 NE 30 41 16 22 1012.1 1010.6 -
31/05:00am 25.4 21.1 14.5 51 6.6 NE 30 44 16 24 1011.7 1010.2 -
31/04:42am 25.7 21.8 14.5 50 6.8 NE 28 48 15 26 1011.6 1010.1 -
31/04:30am 25.6 22.5 14.4 50 6.7 NE 24 35 13 19 1011.7 1010.2 -
31/04:00am 25.9 21.8 13.7 47 7.3 NE 28 37 15 20 1011.3 1009.8 -
31/03:30am 26.1 22.7 12.5 42 8.0 ENE 22 32 12 17 1011.2 1009.7 -
31/03:00am 26.2 22.8 11.2 39 8.6 ENE 20 28 11 15 1010.9 1009.4 0.0
31/02:30am 26.4 22.4 10.5 37 9.0 E 22 28 12 15 1010.7 1009.2 -
31/02:00am 26.7 23.1 10.0 35 9.4 E 19 22 10 12 1010.7 1009.2 -
31/01:30am 27.6 23.8 9.9 33 10.0 E 20 28 11 15 1010.6 1009.1 -
31/01:00am 27.9 23.9 9.2 31 10.5 E 20 28 11 15 1010.5 1009.0 -
31/12:30am 28.4 24.3 8.7 29 10.9 E 20 26 11 14 1010.6 1009.1 -
31/12:00am 28.3 25.4 8.1 28 11.1 SSE 13 15 7 8 1010.9 1009.4 -
 
Date/Time
EST
Temp
°C
App
Temp
°C
Dew
Point
Rel
Hum
%
Delta-T
°C
Wind Press
QNH
hPa
Press
MSL
hPa
Rain
since 9 am
mm
Dir
 
Spd
km/h
Gust
km/h
Spd
kts
Gust
kts
30/11:30pm 29.0 26.1 8.1 27 11.5 ESE 13 19 7 10 1010.6 1009.1 -
30/11:00pm 29.7 26.4 8.2 26 11.9 E 15 20 8 11 1010.8 1009.3 -
30/10:30pm 29.8 26.2 8.2 26 12.0 E 17 24 9 13 1010.8 1009.3 -
30/10:00pm 30.5 26.3 8.3 25 12.4 E 20 26 11 14 1010.7 1009.2 -
30/09:30pm 30.1 26.6 7.3 24 12.5 ESE 15 20 8 11 1010.1 1008.7 -
30/09:00pm 30.6 27.5 7.1 23 12.9 E 13 15 7 8 1009.8 1008.4 0.0
30/08:30pm 31.2 28.0 7.0 22 13.3 E 13 15 7 8 1009.4 1007.9 -
30/08:00pm 31.9 28.7 6.9 21 13.8 E 13 15 7 8 1009.3 1007.8 -
30/07:30pm 32.5 29.5 5.9 19 14.4 E 11 13 6 7 1009.2 1007.7 -
30/07:00pm 33.3 30.6 5.8 18 15.0 ENE 9 11 5 6 1008.9 1007.4 -
30/06:30pm 34.5 31.7 5.0 16 15.9 NE 9 11 5 6 1008.5 1007.0 -
30/06:00pm 36.5 33.2 4.7 14 17.3 NE 11 15 6 8 1008.2 1006.7 -
30/05:30pm 36.9 32.8 6.0 15 17.2 N 17 24 9 13 1008.1 1006.6 -
30/05:00pm 37.6 34.3 4.5 13 18.1 NNE 11 19 6 10 1008.0 1006.5 -
30/04:30pm 37.4 33.7 4.4 13 17.9 NE 13 20 7 11 1008.0 1006.5 -
30/04:00pm 38.2 33.8 5.0 13 18.3 E 17 22 9 12 1008.0 1006.5 -
30/03:30pm 37.3 33.8 5.3 14 17.6 N 13 22 7 12 1008.2 1006.7 -
30/03:00pm 37.9 34.5 5.8 14 17.9 NE 13 22 7 12 1008.5 1007.0 -
30/02:30pm 37.2 33.9 6.3 15 17.3 N 13 20 7 11 1009.0 1007.5 -
30/02:00pm 37.7 34.1 6.6 15 17.5 ENE 15 24 8 13 1009.4 1007.9 -
30/01:30pm 38.0 36.0 6.9 15 17.6 ESE 7 13 4 7 1010.0 1008.6 -
30/12:30pm 37.2 33.9 8.1 17 16.7 N 15 24 8 13 1011.3 1009.8 -
30/11:30am 35.8 31.9 8.6 19 15.6 N 19 28 10 15 1012.5 1011.0 0.0
30/11:00am 36.1 32.0 8.8 19 15.8 N 20 30 11 16 1012.8 1011.4 0.0
30/10:30am 35.3 30.9 8.9 20 15.2 N 22 32 12 17 1013.1 1011.7 0.0
30/10:00am 34.0 29.3 9.3 22 14.2 N 24 35 13 19 1013.5 1012.1 0.0
30/09:30am 33.3 29.0 9.4 23 13.7 NNE 22 35 12 19 1013.9 1012.5 0.0
30/09:00am 32.0 28.3 10.1 26 12.7 NNE 20 30 11 16 1014.2 1012.7 -
30/08:30am 30.2 26.6 10.7 30 11.3 NNE 20 28 11 15 1014.5 1013.0 0.0
30/08:00am 29.0 26.1 11.1 33 10.4 NNE 17 22 9 12 1014.4 - 0.0
30/07:30am 27.1 24.8 10.3 35 9.5 E 13 19 7 10 1014.4 - 0.0
30/07:00am 25.1 22.7 8.6 35 9.0 ESE 11 13 6 7 1014.1 - 0.0
30/03:00am 20.3 18.5 8.0 45 6.5 N 7 9 4 5 1012.6 1011.1 0.0
30/02:30am 21.2 20.3 7.8 42 7.0 NE 2 6 1 3 1012.3 1010.8 -
30/02:00am 21.8 20.6 6.5 37 7.9 E 2 6 1 3 1012.0 1010.5 -
30/01:30am 23.2 21.0 7.7 37 8.2 NE 9 13 5 7 1012.2 1010.7 -
30/01:00am 24.3 21.4 8.3 36 8.6 SSE 13 15 7 8 1011.9 1010.4 -
30/12:30am 24.4 21.6 8.4 36 8.7 SE 13 15 7 8 1012.1 1010.6 -
30/12:00am 25.5 22.7 8.5 34 9.3 SE 13 15 7 8 1012.4 1010.9 -
 
Date/Time
EST
Temp
°C
App
Temp
°C
Dew
Point
Rel
Hum
%
Delta-T
°C
Wind Press
QNH
hPa
Press
MSL
hPa
Rain
since 9 am
mm
Dir
 
Spd
km/h
Gust
km/h
Spd
kts
Gust
kts
29/11:30pm 25.7 23.2 8.2 33 9.5 SE 11 15 6 8 1012.7 1011.2 -
29/11:00pm 27.0 24.3 8.9 32 10.0 E 13 17 7 9 1012.7 1011.2 -
29/10:30pm 27.7 24.4 8.1 29 10.7 ENE 15 19 8 10 1012.9 1011.5 -
29/10:00pm 27.7 25.2 8.1 29 10.7 E 11 13 6 7 1013.0 1011.6 -
29/09:30pm 28.7 25.7 7.9 27 11.4 E 13 15 7 8 1012.8 1011.4 -
29/09:00pm 29.5 26.7 6.8 24 12.3 E 11 17 6 9 1012.5 1011.0 0.0
29/08:30pm 30.5 27.4 3.5 18 13.9 SE 9 15 5 8 1012.1 1010.6 -
29/08:00pm 31.4 27.4 0.7 14 15.2 ESE 11 15 6 8 1011.8 1010.3 -
29/07:30pm 32.8 28.5 0.8 13 16.0 SSE 13 15 7 8 1011.3 1009.8 -
29/07:00pm 34.2 29.1 0.8 12 16.9 S 17 20 9 11 1010.8 1009.3 -
29/06:30pm 35.2 29.1 0.3 11 17.6 S 22 30 12 16 1010.3 1008.9 -
29/06:00pm 36.2 30.2 1.1 11 18.0 S 22 32 12 17 1010.0 1008.6 -
29/05:30pm 37.2 31.5 0.5 10 18.7 S 20 30 11 16 1009.5 1008.0 -
29/05:00pm 37.6 32.5 0.8 10 19.0 SE 17 24 9 13 1009.4 1007.9 -
29/04:30pm 38.6 34.8 1.6 10 19.4 WSW 11 20 6 11 1009.3 1007.8 -
29/04:00pm 38.5 35.0 1.5 10 19.4 SW 9 19 5 10 1009.4 1007.9 -
29/03:30pm 38.4 34.5 1.4 10 19.3 SSW 11 17 6 9 1009.6 1008.2 -
29/03:00pm 39.0 35.8 3.2 11 19.3 ESE 9 20 5 11 1009.9 1008.5 -
29/02:30pm 39.1 36.3 3.3 11 19.3 SW 7 17 4 9 1010.3 1008.9 -
29/02:00pm 37.9 33.6 1.0 10 19.1 S 13 20 7 11 1010.8 1009.3 -
29/01:30pm 37.1 33.9 5.2 14 17.5 SE 11 19 6 10 1011.4 1009.9 -
29/01:00pm 38.3 35.7 6.1 14 18.0 NE 9 17 5 9 1011.7 1010.2 -
29/12:30pm 36.7 33.7 5.9 15 17.1 S 11 22 6 12 1012.3 1010.8 -
29/12:00pm 36.0 32.7 6.2 16 16.5 E 13 20 7 11 1012.9 1011.5 -
29/11:30am 36.8 34.4 6.9 16 16.8 NW 9 20 5 11 1013.4 1012.0 0.0
29/11:00am 35.5 32.5 5.8 16 16.3 NE 11 22 6 12 1013.8 1012.4 0.0
29/10:30am 33.6 29.5 4.3 16 15.6 SE 15 28 8 15 1014.5 1013.0 0.0
29/10:00am 33.3 28.8 4.1 16 15.4 ESE 17 24 9 13 1015.0 1013.5 0.0
29/09:30am 33.0 27.7 2.0 14 15.8 ESE 19 28 10 15 1015.3 1013.8 0.0
29/09:00am 31.8 26.0 0.0 13 15.6 SE 20 32 11 17 1015.5 1014.0 -
29/08:30am 30.8 24.6 -3.0 11 15.6 ESE 20 30 11 16 1015.5 1014.0 -
29/08:00am 29.1 22.4 -4.3 11 14.9 ESE 22 33 12 18 1015.5 1014.0 -
29/07:30am 27.8 20.3 -4.2 12 14.1 SE 26 35 14 19 1015.3 1013.8 -
29/07:00am 26.3 20.0 -4.3 13 13.3 SE 20 30 11 16 1015.1 1013.6 -
29/06:30am 25.0 18.9 -4.3 14 12.6 SE 19 24 10 13 1014.9 1013.4 -
29/06:00am 24.0 18.2 -4.2 15 12.1 SE 17 24 9 13 1014.7 1013.2 -
29/05:30am 23.1 17.7 -4.9 15 11.7 SE 15 19 8 10 1014.5 1013.0 -
29/05:00am 23.7 18.3 -4.4 15 11.9 SSE 15 20 8 11 1014.2 1012.7 -
29/04:30am 24.0 18.5 -5.1 14 12.2 SSE 15 20 8 11 1013.7 1012.3 -
29/04:00am 24.6 18.7 -5.6 13 12.6 SE 17 24 9 13 1013.5 1012.1 -
29/03:30am 24.6 19.1 -5.6 13 12.6 SSE 15 19 8 10 1013.3 1011.9 -
29/03:00am 24.4 - -4.8 14 12.4 - - - - - 1013.3 1011.9 -
29/01:30am 25.7 - -4.7 13 13.1 - - - - - 1013.0 1011.6 -

Other Formats:

Comma delimited format used in spreadsheet applications
http://www.bom.gov.au/fwo/IDQ60801/IDQ60801.95351.axf

JavaScript Object Notation format (JSON) in row-major order
http://www.bom.gov.au/fwo/IDQ60801/IDQ60801.95351.json